Aviation Digital Data Service (ADDS)

Output produced by METARs form (2310 UTC 15 August 2018)
found at http://www.aviationweather.gov/adds/metars/
 
ZBHH 152300Z 06002MPS CAVOK 18/15 Q1019 NOSIG
TAF ZBHH 151904Z 1600/1624 15004MPS 9999 FEW040 TX30/1607Z TN17/1621Z
       
ZGGG 152300Z 07002MPS 040V100 9999 BKN060 27/24 Q1000 NOSIG
TAF ZGGG 152101Z 1600/1624 10004MPS 8000 BKN040 TX33/1607Z TN26/1622Z 
     TEMPO 1605/1610 2500 TSRA SCT011 SCT030CB BKN033
       
ZGSZ 152300Z 05004MPS 020V120 9999 FEW043 28/25 Q0999 NOSIG
TAF ZGSZ 151905Z 1600/1624 11004MPS 6000 SCT030 TX30/1606Z TN27/1622Z 
     TEMPO 1600/1606 SHRA SCT015 FEW020CB BKN030
       
ZBTJ 152300Z 03006MPS CAVOK 25/18 Q1013 NOSIG
TAF ZBTJ 151924Z 1600/1624 04006MPS 5000 HZ NSC TX32/1607Z TN24/1621Z
       
ZBAA 152300Z 02004MPS CAVOK 26/17 Q1014 NOSIG
TAF ZBAA 152130Z 1600/1624 12004MPS 6000 NSC TX30/1606Z TN22/1621Z
       
ZSFZ 152300Z 28003MPS 240V310 CAVOK 28/25 Q1001 NOSIG
TAF ZSFZ 151912Z 1600/1624 23004MPS 7000 SCT012 BKN015 TX33/1606Z TN26/1621Z 
     TEMPO 1608/1614 SHRA BKN007 FEW030CB
       
ZYCC 152300Z 06004MPS 9999 SCT004 16/14 Q1019 NOSIG
TAF ZYCC 151904Z 1600/1624 09003MPS 5000 BR FEW026 TX26/1606Z TN15/1620Z
       
ZWWW 152300Z VRB02MPS CAVOK 22/10 Q1014 NOSIG
TAF ZWWW 152111Z 1600/1624 20004MPS CAVOK TX34/1609Z TN22/1600Z 
     BECMG 1602/1603 36004MPS 
     BECMG 1613/1614 18004MPS
       
ZSAM 152300Z 24003MPS 200V270 8000 FEW020 BKN060 29/26 Q1001 NOSIG
TAF ZSAM 151904Z 1600/1624 19004G09MPS 8000 SCT026 TX36/1606Z TN27/1622Z 
     TEMPO 1607/1609 32009G17MPS 3000 +TSRA BKN010 SCT025CB BKN026
       
ZSSS 152300Z 01006MPS 340V040 9999 BKN016 29/26 Q1001 NOSIG
TAF AMD ZSSS 152206Z 1600/1624 01006MPS 6000 BKN020 TX31/1606Z TN26/1621Z 
     TEMPO 1606/1612 SHRA BKN013 SCT030CB 
     BECMG 1612/1614 06009G15MPS 
     TEMPO 1616/1622 2000 +SHRA BR BKN008 SCT030CB
       
ZGHA 152300Z 36004MPS 6000 FEW008 28/27 Q1003 NOSIG
TAF ZGHA 151935Z 1600/1624 02004MPS 6000 NSC TX36/1607Z TN25/1622Z
       
ZUCK 152300Z 05002MPS 010V080 6000 SCT033 26/24 Q1007 NOSIG
TAF ZUCK 151903Z 1600/1624 15003MPS 5000 BR SCT030 TX32/1608Z TN25/1621Z
       
ZWSH 152300Z 34004MPS CAVOK 23/06 Q1019 NOSIG
TAF ZWSH 152105Z 1600/1624 06004MPS CAVOK TX32/1609Z TN21/1600Z 
     BECMG 1614/1615 31004MPS
       
ZGKL 152300Z VRB01MPS 9999 BKN033 26/25 Q1001 NOSIG
TAF ZGKL 151912Z 1600/1624 05004MPS 9999 SCT040 BKN060 TX35/1608Z TN25/1622Z 
     TEMPO 1606/1610 -TSRA FEW033CB SCT033 BKN050
       
ZSNB 152300Z 33005MPS 9999 BKN016 BKN040 28/26 Q1000 NOSIG
TAF ZSNB 151943Z 1600/1624 32005G11MPS 5000 -SHRA BR BKN020 TX30/1606Z TN26/1621Z 
     TEMPO 1601/1607 SHRA BKN020 FEW020CB 
     BECMG 1607/1608 32010G16MPS SHRA SCT007 BKN015 FEW020CB 
     TEMPO 1618/1624 2000 +TSRA
       
ZSQD 152300Z 04005MPS 010V080 CAVOK 28/24 Q1007 NOSIG
TAF ZSQD 152009Z 1600/1624 05006MPS 6000 SCT030CB TX34/1606Z TN24/1620Z
       
ZSNJ 152300Z 05002MPS 360V080 CAVOK 28/26 Q1004 NOSIG
TAF ZSNJ 151923Z 1600/1624 06004MPS 3000 HZ BKN030 TX32/1606Z TN26/1621Z 
     TEMPO 1606/1612 2500 SHRA BKN008 FEW030CB OVC033 
     BECMG 1615/1616 2500 SHRA BKN008 FEW030CB OVC033
       
ZSOF 152300Z 35007MPS 5000 BR BKN009 FEW026CB OVC033 25/24 Q1004 NOSIG
TAF ZSOF 151908Z 1600/1624 36004MPS 3000 BR SCT020 TX33/1607Z TN25/1621Z 
     TEMPO 1606/1612 TSRA FEW030CB 
     BECMG 1618/1619 2400 -RA BR BKN008
       
ZJHK 152300Z VRB01MPS 9999 BKN033 25/25 Q0996 NOSIG
TAF ZJHK 152033Z 1600/1624 14004MPS 9999 SCT015 BKN040 TX29/1606Z TN25/1621Z 
     TEMPO 1602/1608 2000 SHRA SCT015 FEW023CB BKN040
       
ZJSY 152300Z 26005MPS 9999 SCT012 BKN050 26/25 Q0997 NOSIG
TAF ZJSY 151904Z 1600/1624 27004MPS 9999 SCT016 BKN050 TX30/1606Z TN25/1621Z 
     TEMPO 1600/1604 SHRA SCT014 FEW025CB BKN040
       
ZSPD 152300Z 36009MPS 9999 BKN013 29/26 Q1000 NOSIG
TAF ZSPD 152126Z 1600/1624 02008G13MPS 6000 BKN011 TX31/1606Z TN26/1620Z 
     BECMG 1611/1612 05012G18MPS SHRA BKN008 FEW030CB OVC033 
     TEMPO 1614/1620 +SHRA
       
ZUUU 152300Z 10003MPS 060V130 9999 TS FEW010 FEW023CB SCT023 27/24 Q1009 BECMG TL2330 NSW
TAF ZUUU 152006Z 1600/1624 20003MPS 5000 BR SCT050 TX34/1607Z TN24/1622Z 
     TEMPO 1600/1606 -TSRA FEW030CB SCT030
       
ZYHB 152300Z 04003MPS CAVOK 18/15 Q1020 NOSIG
TAF ZYHB 151902Z 1600/1624 07004G10MPS 6000 SCT030 TX26/1606Z TN13/1621Z
       
ZYTX 152300Z 01005MPS CAVOK 22/19 Q1014 NOSIG
TAF ZYTX 151902Z 1600/1624 03004MPS CAVOK TX29/1606Z TN19/1621Z
       
ZHHH 152300Z 01004MPS 340V050 CAVOK 27/23 Q1005 NOSIG
TAF ZHHH 151903Z 1600/1624 03003MPS 6000 NSC TX37/1607Z TN27/1622Z
       
ZPPP 152300Z 08002MPS 9999 FEW026 16/14 Q1018 NOSIG
TAF ZPPP 151908Z 1600/1624 04004MPS 9999 SCT026 TX24/1608Z TN15/1623Z
       
ZBYN 152300Z 02002MPS CAVOK 23/17 Q1017 NOSIG
TAF ZBYN 151907Z 1600/1624 06004MPS 6000 NSC TX29/1607Z TN20/1621Z 
     TEMPO 1606/1610 FEW030CB SCT040
       
ZGNN 152300Z 35003MPS 9999 SCT023 BKN040 27/25 Q0999 NOSIG
TAF ZGNN 151908Z 1600/1624 05004MPS 9999 BKN030 TX33/1607Z TN25/1622Z 
     TEMPO 1600/1606 TSRA FEW026CB BKN030 
     TEMPO 1606/1612 TSRA FEW026CB BKN030
       
ZLXY 152300Z 06005MPS 6000 NSC 26/22 Q1012 NOSIG
TAF ZLXY 151906Z 1600/1624 06004MPS 3000 HZ NSC TX35/1608Z TN24/1621Z
       
ZSHC 152300Z 33004MPS 300V360 9999 BKN040 28/26 Q1002 NOSIG
TAF ZSHC 151915Z 1600/1624 34006G14MPS 6000 BKN023 TX30/1605Z TN26/1621Z 
     TEMPO 1606/1612 SHRA BKN023 FEW030CB 
     BECMG 1612/1613 SHRA BKN023 FEW030CB
       
ZHCC 152300Z 36005MPS 320V020 CAVOK 27/18 Q1010 NOSIG
TAF ZHCC 151915Z 1600/1624 03005MPS 6000 NSC TX30/1607Z TN24/1622Z
       
TAF ZSJN 150917Z 1512/1612 04004G10MPS 3500 BR NSC TX30/06Z TN23/21Z 
     TEMPO 1420 -TSRA SCT030CB SCT030
       
ZBSJ 152300Z 04003MPS 330V070 9999 -RA OVC040 26/21 Q1013 NOSIG
TAF ZBSJ 151909Z 1600/1624 03004MPS CAVOK TX32/1606Z TN24/1621Z
       
ZLLL 152300Z 08002MPS 9999 OVC046 15/09 Q1025 NOSIG
TAF ZLLL 151915Z 1600/1624 17003MPS 9999 SCT040 TX24/1609Z TN15/1622Z 
     TEMPO 1606/1612 FEW033CB SCT040
       
ZYTL 152300Z 36003MPS 330V030 8000 NSC 25/23 Q1010 NOSIG
TAF ZYTL 151906Z 1600/1624 05006MPS 6000 FEW030 TX31/1606Z TN25/1620Z